createdAt,value
2018-12-09T00:01:23.822Z,99018.00
2018-12-09T00:03:49.805Z,99011.92
2018-12-09T00:06:15.852Z,98997.92
2018-12-09T00:08:41.831Z,99010.60
2018-12-09T00:11:07.786Z,99011.80
2018-12-09T00:13:33.770Z,99005.38
2018-12-09T00:15:59.751Z,99001.25
2018-12-09T00:18:25.714Z,98997.29
2018-12-09T00:20:51.666Z,98996.48
2018-12-09T00:23:17.651Z,99001.93
2018-12-09T00:25:43.623Z,99018.05
2018-12-09T00:28:09.569Z,99009.34
2018-12-09T00:30:35.506Z,99009.16
2018-12-09T00:33:01.559Z,98996.23
2018-12-09T00:35:27.521Z,98991.44
2018-12-09T00:37:53.511Z,98983.86
2018-12-09T00:40:19.456Z,98990.62
2018-12-09T00:42:45.437Z,98999.34
2018-12-09T00:45:11.493Z,98991.44
2018-12-09T00:47:37.458Z,99001.98
2018-12-09T00:50:03.425Z,98996.11
2018-12-09T00:52:29.691Z,99002.37
2018-12-09T00:54:55.720Z,98998.62
2018-12-09T00:57:21.665Z,99006.02
2018-12-09T00:59:47.635Z,99009.97
2018-12-09T01:02:13.593Z,99011.47
2018-12-09T01:04:39.658Z,99013.80
2018-12-09T01:07:06.116Z,99010.33
2018-12-09T01:09:32.095Z,99007.38
2018-12-09T01:11:58.251Z,99004.45
2018-12-09T01:14:24.197Z,98990.75
2018-12-09T01:16:50.196Z,99003.43
2018-12-09T01:19:16.208Z,99016.31
2018-12-09T01:21:42.286Z,99008.70
2018-12-09T01:24:08.306Z,99003.94
2018-12-09T01:26:34.261Z,99003.43
2018-12-09T01:29:00.222Z,99018.44
2018-12-09T01:31:26.186Z,99004.45
2018-12-09T01:33:52.225Z,99015.80
2018-12-09T01:36:18.182Z,99022.56
2018-12-09T01:38:44.163Z,99037.75
2018-12-09T01:41:10.111Z,99039.41
2018-12-09T01:43:36.158Z,99044.17
2018-12-09T01:46:02.131Z,99044.04
2018-12-09T01:48:28.152Z,99048.30
2018-12-09T01:50:54.487Z,99047.48
2018-12-09T01:53:20.439Z,99047.99
2018-12-09T01:55:46.420Z,99046.67
2018-12-09T01:58:12.370Z,99051.95
2018-12-09T02:00:38.345Z,99041.58
2018-12-09T02:03:04.391Z,99051.95
2018-12-09T02:05:30.545Z,99062.67
2018-12-09T02:07:56.729Z,99047.86
2018-12-09T02:10:22.763Z,99049.82
2018-12-09T02:12:48.713Z,99061.17
2018-12-09T02:15:14.676Z,99059.05
2018-12-09T02:17:40.804Z,99065.64
2018-12-09T02:20:06.759Z,99068.07
2018-12-09T02:22:32.738Z,99076.11
2018-12-09T02:24:58.718Z,99080.57
2018-12-09T02:27:24.669Z,99082.56
2018-12-09T02:29:51.129Z,99076.62
2018-12-09T02:32:17.102Z,99073.47
2018-12-09T02:34:43.150Z,99080.91
2018-12-09T02:37:09.131Z,99074.31
2018-12-09T02:39:35.178Z,99069.22
2018-12-09T02:42:01.132Z,99070.23
2018-12-09T02:44:28.058Z,99071.55
2018-12-09T02:46:54.334Z,99076.99
2018-12-09T02:49:20.287Z,99080.64
2018-12-09T02:51:46.259Z,99085.58
2018-12-09T02:54:12.580Z,99076.86
2018-12-09T02:56:38.511Z,99079.50
2018-12-09T02:59:04.583Z,99071.08
2018-12-09T03:01:30.634Z,99078.69
2018-12-09T03:03:56.621Z,99069.77
2018-12-09T03:06:22.568Z,99067.64
2018-12-09T03:08:49.040Z,99070.45
2018-12-09T03:11:15.174Z,99085.63
2018-12-09T03:13:41.203Z,99084.64
2018-12-09T03:16:07.178Z,99095.86
2018-12-09T03:18:33.130Z,99065.55
2018-12-09T03:20:59.104Z,99084.30
2018-12-09T03:23:25.145Z,99105.77
2018-12-09T03:25:51.146Z,99111.85
2018-12-09T03:28:17.198Z,99115.00
2018-12-09T03:30:43.215Z,99112.70
2018-12-09T03:33:09.254Z,99120.47
2018-12-09T03:35:35.517Z,99124.26
2018-12-09T03:38:01.469Z,99118.98
2018-12-09T03:40:27.445Z,99136.12
2018-12-09T03:42:53.482Z,99144.03
2018-12-09T03:45:19.459Z,99142.71
2018-12-09T03:47:45.425Z,99154.37
2018-12-09T03:50:11.667Z,99149.30
2018-12-09T03:52:37.683Z,99137.74
2018-12-09T03:55:03.734Z,99139.87
2018-12-09T03:57:29.702Z,99142.88
2018-12-09T03:59:55.740Z,99125.75
2018-12-09T04:02:21.791Z,99109.59
2018-12-09T04:04:47.735Z,99110.92
2018-12-09T04:07:13.691Z,99128.89
2018-12-09T04:09:39.728Z,99140.75
2018-12-09T04:12:05.691Z,99138.59
2018-12-09T04:14:31.722Z,99127.23
2018-12-09T04:16:58.071Z,99138.45
2018-12-09T04:19:24.011Z,99124.98
2018-12-09T04:21:50.050Z,99118.38
2018-12-09T04:24:16.005Z,99108.34
2018-12-09T04:26:41.953Z,99102.27
2018-12-09T04:29:07.906Z,99107.03
2018-12-09T04:31:34.249Z,99127.30
2018-12-09T04:34:00.326Z,99110.98
2018-12-09T04:36:26.288Z,99138.80
2018-12-09T04:38:52.258Z,99136.46
2018-12-09T04:41:18.197Z,99150.66
2018-12-09T04:43:44.162Z,99137.14
2018-12-09T04:46:10.209Z,99142.23
2018-12-09T04:48:36.153Z,99128.92
2018-12-09T04:51:02.121Z,99131.56
2018-12-09T04:53:28.161Z,99135.21
2018-12-09T04:55:54.218Z,99129.60
2018-12-09T04:58:20.581Z,99132.23
2018-12-09T05:00:46.635Z,99149.88
2018-12-09T05:03:12.588Z,99143.46
2018-12-09T05:05:38.809Z,99146.09
2018-12-09T05:08:04.828Z,99147.75
2018-12-09T05:10:30.777Z,99152.07
2018-12-09T05:12:57.433Z,99142.20
2018-12-09T05:15:23.498Z,99136.30
2018-12-09T05:17:49.449Z,99148.12
2018-12-09T05:20:15.413Z,99145.48
2018-12-09T05:22:41.398Z,99150.55
2018-12-09T05:25:07.465Z,99148.93
2018-12-09T05:27:33.466Z,99152.69
2018-12-09T05:29:59.445Z,99157.78
2018-12-09T05:32:25.425Z,99154.47
2018-12-09T05:34:51.444Z,99166.64
2018-12-09T05:37:17.393Z,99194.31
2018-12-09T05:39:43.339Z,99173.70
2018-12-09T05:42:09.306Z,99205.33
2018-12-09T05:44:35.256Z,99199.55
2018-12-09T05:47:01.405Z,99203.00
2018-12-09T05:49:27.470Z,99188.84
2018-12-09T05:51:53.449Z,99181.61
2018-12-09T05:54:19.901Z,99192.28
2018-12-09T05:56:46.079Z,99185.19
2018-12-09T05:59:12.025Z,99190.80
2018-12-09T06:01:37.993Z,99193.77
2018-12-09T06:04:03.948Z,99210.23
2018-12-09T06:06:29.909Z,99222.91
2018-12-09T06:08:56.174Z,99219.93
2018-12-09T06:11:22.138Z,99228.98
2018-12-09T06:13:48.213Z,99230.61
2018-12-09T06:16:14.182Z,99224.02
2018-12-09T06:18:40.123Z,99225.54
2018-12-09T06:21:06.074Z,99230.44
2018-12-09T06:23:32.341Z,99230.27
2018-12-09T06:25:58.303Z,99223.48
2018-12-09T06:28:24.272Z,99218.21
2018-12-09T06:30:50.241Z,99213.14
2018-12-09T06:33:16.186Z,99217.91
2018-12-09T06:35:42.161Z,99226.63
2018-12-09T06:38:08.235Z,99235.34
2018-12-09T06:40:34.329Z,99231.90
2018-12-09T06:43:00.303Z,99244.91
2018-12-09T06:45:26.286Z,99239.95
2018-12-09T06:47:52.238Z,99250.69
2018-12-09T06:50:18.200Z,99244.91
2018-12-09T06:52:44.173Z,99233.55
2018-12-09T06:55:10.187Z,99247.55
2018-12-09T06:57:36.232Z,99250.69
2018-12-09T07:00:02.232Z,99252.82
2018-12-09T07:02:28.197Z,99250.69
2018-12-09T07:04:54.156Z,99254.64
2018-12-09T07:07:20.515Z,99263.37
2018-12-09T07:09:46.650Z,99265.19
2018-12-09T07:12:12.606Z,99262.55
2018-12-09T07:14:38.576Z,99258.27
2018-12-09T07:17:04.537Z,99254.64
2018-12-09T07:19:30.480Z,99260.73
2018-12-09T07:21:56.749Z,99266.51
2018-12-09T07:24:22.735Z,99275.03
2018-12-09T07:26:48.687Z,99278.52
2018-12-09T07:29:14.633Z,99275.88
2018-12-09T07:31:40.664Z,99284.59
2018-12-09T07:34:06.705Z,99289.88
2018-12-09T07:36:32.873Z,99293.83
2018-12-09T07:38:58.851Z,99299.09
2018-12-09T07:41:24.814Z,99304.68
2018-12-09T07:43:50.754Z,99311.27
2018-12-09T07:46:16.763Z,99315.05
2018-12-09T07:48:42.837Z,99311.77
2018-12-09T07:51:09.142Z,99321.52
2018-12-09T07:53:35.102Z,99322.83
2018-12-09T07:56:01.098Z,99322.02
2018-12-09T07:58:27.091Z,99333.68
2018-12-09T08:00:53.034Z,99332.88
2018-12-09T08:03:18.985Z,99336.31
2018-12-09T08:05:44.939Z,99341.09
2018-12-09T08:08:10.902Z,99349.34
2018-12-09T08:10:36.862Z,99355.78
2018-12-09T08:13:02.827Z,99345.41
2018-12-09T08:15:28.784Z,99349.20
2018-12-09T08:17:54.753Z,99348.19
2018-12-09T08:20:20.839Z,99364.00
2018-12-09T08:22:46.777Z,99355.78
2018-12-09T08:25:12.835Z,99363.19
2018-12-09T08:27:38.834Z,99370.59
2018-12-09T08:30:04.788Z,99370.59
2018-12-09T08:32:30.747Z,99368.77
2018-12-09T08:34:56.905Z,99378.14
2018-12-09T08:37:22.930Z,99380.47
2018-12-09T08:39:48.892Z,99385.74
2018-12-09T08:42:14.839Z,99379.16
2018-12-09T08:44:40.794Z,99380.78
2018-12-09T08:47:06.761Z,99383.25
2018-12-09T08:49:32.712Z,99381.13
2018-12-09T08:51:58.661Z,99390.66
2018-12-09T08:54:24.670Z,99395.26
2018-12-09T08:56:50.664Z,99389.17
2018-12-09T08:59:16.729Z,99394.28
2018-12-09T09:01:42.757Z,99389.67
2018-12-09T09:04:08.723Z,99400.88
2018-12-09T09:06:34.710Z,99397.73
2018-12-09T09:09:00.691Z,99406.62
2018-12-09T09:11:26.772Z,99403.17
2018-12-09T09:13:52.733Z,99407.13
2018-12-09T09:16:18.852Z,99405.30
2018-12-09T09:18:44.928Z,99407.47
2018-12-09T09:21:10.997Z,99404.32
2018-12-09T09:23:36.989Z,99408.28
2018-12-09T09:26:02.959Z,99418.02
2018-12-09T09:28:28.895Z,99416.69
2018-12-09T09:30:54.839Z,99430.70
2018-12-09T09:33:20.797Z,99425.92
2018-12-09T09:35:46.745Z,99426.73
2018-12-09T09:38:12.717Z,99429.87
2018-12-09T09:40:38.679Z,99434.00
2018-12-09T09:43:04.682Z,99437.95
2018-12-09T09:45:30.636Z,99434.81
2018-12-09T09:47:56.645Z,99441.41
2018-12-09T09:50:22.612Z,99435.16
2018-12-09T09:52:48.557Z,99449.97
2018-12-09T09:55:14.527Z,99443.69
2018-12-09T09:57:40.490Z,99447.64
2018-12-09T10:00:06.449Z,99445.14
2018-12-09T10:02:32.399Z,99439.88
2018-12-09T10:04:58.371Z,99436.11
2018-12-09T10:07:24.340Z,99440.06
2018-12-09T10:09:50.304Z,99449.95
2018-12-09T10:12:17.110Z,99442.03
2018-12-09T10:14:43.339Z,99444.02
2018-12-09T10:17:09.318Z,99444.02
2018-12-09T10:19:35.330Z,99456.03
2018-12-09T10:22:01.420Z,99455.70
2018-12-09T10:24:27.486Z,99452.61
2018-12-09T10:26:53.473Z,99453.25
2018-12-09T10:29:19.432Z,99451.94
2018-12-09T10:31:45.382Z,99460.50
2018-12-09T10:34:11.412Z,99454.58
2018-12-09T10:36:37.366Z,99443.88
2018-12-09T10:39:03.348Z,99457.72
2018-12-09T10:41:29.290Z,99456.54
2018-12-09T10:43:55.266Z,99461.98
2018-12-09T10:46:21.854Z,99454.88
2018-12-09T10:48:47.959Z,99447.64
2018-12-09T10:51:13.920Z,99453.25
2018-12-09T10:53:40.407Z,99449.95
2018-12-09T10:56:06.643Z,99460.95
2018-12-09T10:58:32.592Z,99452.89
2018-12-09T11:00:58.560Z,99460.50
2018-12-09T11:03:24.537Z,99462.94
2018-12-09T11:05:50.618Z,99462.94
2018-12-09T11:08:16.781Z,99462.13
2018-12-09T11:10:42.936Z,99465.77
2018-12-09T11:13:08.906Z,99469.87
2018-12-09T11:15:34.877Z,99468.86
2018-12-09T11:18:00.846Z,99466.56
2018-12-09T11:20:26.825Z,99471.33
2018-12-09T11:22:52.807Z,99471.14
2018-12-09T11:25:18.917Z,99475.94
2018-12-09T11:27:44.881Z,99477.88
2018-12-09T11:30:10.952Z,99484.33
2018-12-09T11:32:36.918Z,99485.48
2018-12-09T11:35:02.957Z,99492.08
2018-12-09T11:37:28.964Z,99496.03
2018-12-09T11:39:54.941Z,99499.48
2018-12-09T11:42:21.006Z,99497.86
2018-12-09T11:44:46.991Z,99506.89
2018-12-09T11:47:12.964Z,99511.50
2018-12-09T11:49:38.938Z,99505.89
2018-12-09T11:52:04.997Z,99512.80
2018-12-09T11:54:30.964Z,99504.06
2018-12-09T11:56:56.970Z,99505.70
2018-12-09T11:59:23.072Z,99513.45
2018-12-09T12:01:49.055Z,99510.30
2018-12-09T12:04:15.030Z,99512.44
2018-12-09T12:06:41.003Z,99507.50
2018-12-09T12:09:07.004Z,99508.82
2018-12-09T12:11:32.993Z,99503.55
2018-12-09T12:13:58.941Z,99516.59
2018-12-09T12:16:24.995Z,99513.11
2018-12-09T12:18:50.957Z,99519.23
2018-12-09T12:21:16.958Z,99531.27
2018-12-09T12:23:42.918Z,99530.45
2018-12-09T12:26:08.874Z,99534.91
2018-12-09T12:28:34.842Z,99539.17
2018-12-09T12:31:00.803Z,99546.28
2018-12-09T12:33:26.779Z,99543.78
2018-12-09T12:35:52.741Z,99548.55
2018-12-09T12:38:18.692Z,99551.03
2018-12-09T12:40:44.645Z,99562.40
2018-12-09T12:43:10.711Z,99563.21
2018-12-09T12:45:36.681Z,99562.91
2018-12-09T12:48:02.649Z,99571.12
2018-12-09T12:50:28.589Z,99590.91
2018-12-09T12:52:54.557Z,99620.60
2018-12-09T12:55:20.517Z,99615.33
2018-12-09T12:57:46.472Z,99611.37
2018-12-09T13:00:12.435Z,99630.50
2018-12-09T13:02:38.424Z,99632.98
2018-12-09T13:05:04.388Z,99640.08
2018-12-09T13:07:30.374Z,99654.08
2018-12-09T13:09:57.446Z,99661.50
2018-12-09T13:12:23.476Z,99666.96
2018-12-09T13:14:49.476Z,99675.85
2018-12-09T13:17:15.465Z,99684.92
2018-12-09T13:19:41.430Z,99684.43
2018-12-09T13:22:07.479Z,99677.17
2018-12-09T13:24:33.548Z,99677.17
2018-12-09T13:26:59.630Z,99678.49
2018-12-09T13:29:25.661Z,99680.31
2018-12-09T13:31:51.706Z,99684.77
2018-12-09T13:34:17.672Z,99686.76
2018-12-09T13:36:43.639Z,99688.58
2018-12-09T13:39:09.589Z,99697.46
2018-12-09T13:41:35.608Z,99704.72
2018-12-09T13:44:01.558Z,99699.78
2018-12-09T13:46:27.508Z,99713.30
2018-12-09T13:48:53.585Z,99720.55
2018-12-09T13:51:19.557Z,99719.23
2018-12-09T13:53:45.533Z,99727.14
2018-12-09T13:56:11.566Z,99743.32
2018-12-09T13:58:37.542Z,99743.98
2018-12-09T14:01:03.516Z,99747.44
2018-12-09T14:03:29.588Z,99756.67
2018-12-09T14:05:55.564Z,99765.74
2018-12-09T14:08:21.606Z,99770.67
2018-12-09T14:10:47.597Z,99771.02
2018-12-09T14:13:13.578Z,99782.89
2018-12-09T14:15:39.543Z,99785.84
2018-12-09T14:18:05.571Z,99791.78
2018-12-09T14:20:31.605Z,99798.06
2018-12-09T14:22:57.671Z,99809.74
2018-12-09T14:25:23.626Z,99814.36
2018-12-09T14:27:49.590Z,99830.69
2018-12-09T14:30:15.576Z,99831.19
2018-12-09T14:32:41.536Z,99837.95
2018-12-09T14:35:07.522Z,99849.00
2018-12-09T14:37:33.483Z,99858.39
2018-12-09T14:39:59.439Z,99859.71
2018-12-09T14:42:25.413Z,99874.54
2018-12-09T14:44:51.389Z,99872.09
2018-12-09T14:47:17.358Z,99886.41
2018-12-09T14:49:43.337Z,99878.84
2018-12-09T14:52:09.306Z,99890.20
2018-12-09T14:54:35.281Z,99903.40
2018-12-09T14:57:01.317Z,99904.72
2018-12-09T14:59:27.316Z,99910.84
2018-12-09T15:01:53.284Z,99914.11
2018-12-09T15:04:19.245Z,99925.02
2018-12-09T15:06:45.297Z,99930.29
2018-12-09T15:09:11.246Z,99931.92
2018-12-09T15:11:37.216Z,99943.30
2018-12-09T15:14:03.181Z,99936.23
2018-12-09T15:16:29.149Z,99946.28
2018-12-09T15:18:55.210Z,99950.41
2018-12-09T15:21:21.174Z,99962.94
2018-12-09T15:23:47.145Z,99968.69
2018-12-09T15:26:13.109Z,99967.38
2018-12-09T15:28:39.052Z,99975.79
2018-12-09T15:31:05.009Z,99978.42
2018-12-09T15:33:30.979Z,99983.03
2018-12-09T15:35:56.934Z,99984.36
2018-12-09T15:38:22.923Z,99992.45
2018-12-09T15:40:48.873Z,100000.19
2018-12-09T15:43:14.842Z,100007.47
2018-12-09T15:45:40.816Z,100010.27
2018-12-09T15:48:06.784Z,100015.22
2018-12-09T15:50:32.753Z,100021.98
2018-12-09T15:52:58.719Z,100019.34
2018-12-09T15:55:24.710Z,100034.67
2018-12-09T15:57:50.678Z,100046.70
2018-12-09T16:00:16.655Z,100055.44
2018-12-09T16:02:42.621Z,100062.88
2018-12-09T16:05:08.600Z,100063.20
2018-12-09T16:07:34.592Z,100072.94
2018-12-09T16:10:00.624Z,100077.86
2018-12-09T16:12:26.602Z,100089.59
2018-12-09T16:14:52.571Z,100091.91
2018-12-09T16:17:18.572Z,100092.23
2018-12-09T16:19:44.631Z,100095.86
2018-12-09T16:22:10.592Z,100103.43
2018-12-09T16:24:36.567Z,100113.98
2018-12-09T16:27:02.530Z,100112.34
2018-12-09T16:29:28.499Z,100114.98
2018-12-09T16:31:54.457Z,100121.90
2018-12-09T16:34:20.457Z,100130.31
2018-12-09T16:36:46.439Z,100137.41
2018-12-09T16:39:12.402Z,100144.18
2018-12-09T16:41:38.467Z,100160.01
2018-12-09T16:44:04.447Z,100162.82
2018-12-09T16:46:30.441Z,100168.09
2018-12-09T16:48:56.461Z,100177.66
2018-12-09T16:51:22.446Z,100187.39
2018-12-09T16:53:48.405Z,100192.81
2018-12-09T16:56:14.458Z,100203.39
2018-12-09T16:58:40.434Z,100212.80
2018-12-09T17:01:06.397Z,100217.94
2018-12-09T17:03:32.402Z,100225.03
2018-12-09T17:05:58.527Z,100235.09
2018-12-09T17:08:24.495Z,100239.87
2018-12-09T17:10:50.454Z,100253.09
2018-12-09T17:13:16.409Z,100244.82
2018-12-09T17:15:42.396Z,100259.34
2018-12-09T17:18:08.367Z,100267.11
2018-12-09T17:20:34.321Z,100272.39
2018-12-09T17:23:00.278Z,100271.89
2018-12-09T17:25:26.282Z,100284.27
2018-12-09T17:27:52.314Z,100282.59
2018-12-09T17:30:18.284Z,100289.37
2018-12-09T17:32:44.247Z,100301.39
2018-12-09T17:35:10.422Z,100311.27
2018-12-09T17:37:36.470Z,100322.19
2018-12-09T17:40:02.468Z,100323.33
2018-12-09T17:42:28.494Z,100331.74
2018-12-09T17:44:54.444Z,100337.98
2018-12-09T17:47:20.416Z,100350.86
2018-12-09T17:49:46.388Z,100349.07
2018-12-09T17:52:12.396Z,100357.64
2018-12-09T17:54:38.390Z,100363.23
2018-12-09T17:57:04.344Z,100369.66
2018-12-09T17:59:30.313Z,100376.93
2018-12-09T18:01:56.306Z,100380.89
2018-12-09T18:04:22.268Z,100383.20
2018-12-09T18:06:48.268Z,100399.19
2018-12-09T18:09:14.246Z,100411.70
2018-12-09T18:11:40.396Z,100418.94
2018-12-09T18:14:06.345Z,100420.44
2018-12-09T18:16:32.325Z,100430.17
2018-12-09T18:18:58.367Z,100430.03
2018-12-09T18:21:24.350Z,100433.98
2018-12-09T18:23:50.324Z,100440.59
2018-12-09T18:26:16.295Z,100451.96
2018-12-09T18:28:42.279Z,100453.78
2018-12-09T18:31:08.267Z,100468.98
2018-12-09T18:33:36.145Z,100469.62
2018-12-09T18:36:02.139Z,100478.85
2018-12-09T18:38:28.143Z,100485.77
2018-12-09T18:40:54.287Z,100496.69
2018-12-09T18:43:20.354Z,100508.06
2018-12-09T18:45:46.354Z,100513.34
2018-12-09T18:48:12.325Z,100519.13
2018-12-09T18:50:39.049Z,100519.45
2018-12-09T18:53:05.190Z,100532.64
2018-12-09T18:55:31.207Z,100538.56
2018-12-09T18:57:57.382Z,100545.16
2018-12-09T19:00:23.333Z,100545.98
2018-12-09T19:02:49.339Z,100550.30
2018-12-09T19:05:15.337Z,100543.20
2018-12-09T19:07:41.364Z,100563.99
2018-12-09T19:10:07.362Z,100569.59
2018-12-09T19:12:33.430Z,100579.47
2018-12-09T19:14:59.489Z,100581.97
2018-12-09T19:17:25.461Z,100593.48
2018-12-09T19:19:51.442Z,100597.45
2018-12-09T19:22:17.443Z,100611.14
2018-12-09T19:24:43.454Z,100608.50
2018-12-09T19:27:09.424Z,100611.14
2018-12-09T19:29:35.396Z,100615.78
2018-12-09T19:32:01.426Z,100627.66
2018-12-09T19:34:27.401Z,100632.11
2018-12-09T19:36:53.407Z,100638.22
2018-12-09T19:39:19.399Z,100642.67
2018-12-09T19:41:45.376Z,100649.27
2018-12-09T19:44:11.393Z,100656.83
2018-12-09T19:46:37.373Z,100654.69
2018-12-09T19:49:03.368Z,100660.47
2018-12-09T19:51:29.351Z,100661.97
2018-12-09T19:53:55.340Z,100660.16
2018-12-09T19:56:21.318Z,100665.93
2018-12-09T19:58:47.267Z,100665.93
2018-12-09T20:01:13.293Z,100674.18
2018-12-09T20:03:39.279Z,100687.10
2018-12-09T20:06:05.246Z,100693.02
2018-12-09T20:08:31.218Z,100691.33
2018-12-09T20:10:57.185Z,100696.61
2018-12-09T20:13:23.149Z,100692.19
2018-12-09T20:15:49.204Z,100697.47
2018-12-09T20:18:15.188Z,100701.89
2018-12-09T20:20:41.147Z,100704.53
2018-12-09T20:23:07.124Z,100708.66
2018-12-09T20:25:33.111Z,100706.16
2018-12-09T20:27:59.250Z,100716.58
2018-12-09T20:30:25.235Z,100728.95
2018-12-09T20:32:51.203Z,100726.08
2018-12-09T20:35:17.166Z,100727.41
2018-12-09T20:37:43.215Z,100729.22
2018-12-09T20:40:09.189Z,100738.33
2018-12-09T20:42:35.141Z,100738.84
2018-12-09T20:45:01.111Z,100750.39
2018-12-09T20:47:27.089Z,100752.41
2018-12-09T20:49:53.011Z,100752.05
2018-12-09T20:52:19.023Z,100756.50
2018-12-09T20:54:45.014Z,100757.69
2018-12-09T20:57:11.037Z,100756.86
2018-12-09T20:59:37.001Z,100765.11
2018-12-09T21:02:02.970Z,100768.38
2018-12-09T21:04:28.931Z,100781.44
2018-12-09T21:06:54.909Z,100791.50
2018-12-09T21:09:20.906Z,100792.95
2018-12-09T21:11:46.890Z,100789.98
2018-12-09T21:14:12.881Z,100793.25
2018-12-09T21:16:38.962Z,100802.16
2018-12-09T21:19:04.985Z,100800.34
2018-12-09T21:21:30.950Z,100808.40
2018-12-09T21:23:57.037Z,100807.58
2018-12-09T21:26:23.006Z,100815.00
2018-12-09T21:28:49.005Z,100816.95
2018-12-09T21:31:15.315Z,100822.91
2018-12-09T21:33:41.262Z,100828.69
2018-12-09T21:36:07.234Z,100835.78
2018-12-09T21:38:33.233Z,100833.64
2018-12-09T21:40:59.182Z,100843.70
2018-12-09T21:43:25.158Z,100851.95
2018-12-09T21:45:51.113Z,100847.16
2018-12-09T21:48:17.077Z,100845.98
2018-12-09T21:50:43.042Z,100853.89
2018-12-09T21:53:08.995Z,100857.19
2018-12-09T21:55:34.963Z,100864.13
2018-12-09T21:58:00.948Z,100870.22
2018-12-09T22:00:26.922Z,100872.04
2018-12-09T22:02:53.005Z,100872.66
2018-12-09T22:05:18.959Z,100869.70
2018-12-09T22:07:44.917Z,100874.97
2018-12-09T22:10:10.910Z,100879.23
2018-12-09T22:12:36.888Z,100886.98
2018-12-09T22:15:02.906Z,100887.47
2018-12-09T22:17:28.925Z,100888.92
2018-12-09T22:19:54.902Z,100889.42
2018-12-09T22:22:20.947Z,100894.83
2018-12-09T22:24:46.965Z,100902.74
2018-12-09T22:27:12.978Z,100908.02
2018-12-09T22:29:38.955Z,100912.97
2018-12-09T22:32:04.954Z,100920.88
2018-12-09T22:34:30.937Z,100929.30
2018-12-09T22:36:56.894Z,100932.42
2018-12-09T22:39:23.031Z,100933.74
2018-12-09T22:41:48.978Z,100933.88
2018-12-09T22:44:14.929Z,100946.23
2018-12-09T22:49:13.511Z,100955.97
2018-12-09T22:51:40.650Z,100955.97
2018-12-09T22:54:06.619Z,100955.48
2018-12-09T22:56:32.558Z,100955.97
2018-12-09T22:58:58.552Z,100960.88
2018-12-09T23:01:24.659Z,100976.22
2018-12-09T23:03:50.647Z,100984.62
2018-12-09T23:06:16.626Z,100989.41
2018-12-09T23:08:42.596Z,100991.72
2018-12-09T23:11:08.540Z,100999.30
2018-12-09T23:13:34.610Z,101002.07
2018-12-09T23:16:00.582Z,101003.39
2018-12-09T23:18:26.825Z,101012.12
2018-12-09T23:20:52.775Z,101011.80
2018-12-09T23:23:18.761Z,101017.20
2018-12-09T23:25:44.757Z,101021.16
2018-12-09T23:28:10.706Z,101016.87
2018-12-09T23:30:36.682Z,101019.30
2018-12-09T23:33:02.649Z,101018.31
2018-12-09T23:35:28.632Z,101028.73
2018-12-09T23:37:54.595Z,101023.59
2018-12-09T23:40:20.588Z,101035.80
2018-12-09T23:42:46.573Z,101033.16
2018-12-09T23:45:12.540Z,101033.65
2018-12-09T23:47:38.602Z,101035.95
2018-12-09T23:50:04.606Z,101040.41
2018-12-09T23:52:30.583Z,101048.78
2018-12-09T23:54:56.557Z,101043.50
2018-12-09T23:57:22.726Z,101047.46
2018-12-09T23:59:48.681Z,101045.31
